Time;durP1;ratioP1;P1;durP2;ratioP2;P2;SDS_P1;SDS_P2;PMS_P1;PMS_P2;Temp;Humidity;BMP_temperature;BMP_pressure;BME280_temperature;BME280_humidity;BME280_pressure;Samples;Min_cycle;Max_cycle;Signal;HPM_P1;HPM_P2
2021/12/18 00:00:19;;;;;;;10.32;3.45;;;8.30;99.90;;;;;;5002314;28;20186;-84
2021/12/18 00:02:45;;;;;;;8.63;3.10;;;8.30;99.90;;;;;;5001222;28;20048;-84
2021/12/18 00:05:11;;;;;;;7.40;3.03;;;8.30;99.90;;;;;;5034439;28;20030;-83
2021/12/18 00:07:37;;;;;;;10.23;3.38;;;8.30;99.90;;;;;;4996493;28;20132;-84
2021/12/18 00:10:05;;;;;;;8.50;2.83;;;8.30;99.90;;;;;;5017744;28;20034;-83
2021/12/18 00:12:30;;;;;;;5.78;2.22;;;8.30;99.90;;;;;;5000826;28;20037;-84
2021/12/18 00:14:56;;;;;;;11.20;2.55;;;8.30;99.90;;;;;;5015826;28;20627;-84
2021/12/18 00:17:22;;;;;;;22.55;2.65;;;8.20;99.90;;;;;;5015131;28;20044;-83
2021/12/18 00:19:47;;;;;;;27.25;3.45;;;8.20;99.90;;;;;;5014517;28;20038;-83
2021/12/18 00:22:13;;;;;;;25.38;2.75;;;8.20;99.90;;;;;;5008685;28;20098;-83
2021/12/18 00:24:39;;;;;;;22.65;2.60;;;8.20;99.90;;;;;;5014599;28;20044;-84
2021/12/18 00:27:07;;;;;;;26.40;2.55;;;8.20;99.90;;;;;;5015691;28;20107;-84
2021/12/18 00:29:33;;;;;;;49.80;3.70;;;8.20;99.90;;;;;;5001544;28;20419;-84
2021/12/18 00:31:58;;;;;;;38.00;3.53;;;8.30;99.90;;;;;;4999756;28;20227;-84
2021/12/18 00:34:24;;;;;;;23.80;3.15;;;8.30;99.90;;;;;;5008788;28;20488;-83
2021/12/18 00:36:51;;;;;;;12.60;2.63;;;8.20;99.90;;;;;;4998061;28;20120;-84
2021/12/18 00:39:17;;;;;;;8.35;2.20;;;8.30;99.90;;;;;;5013185;28;20044;-84
2021/12/18 00:44:13;;;;;;;6.03;2.35;;;8.20;99.90;;;;;;5014880;28;20045;-83
2021/12/18 00:46:43;;;;;;;6.88;1.90;;;8.20;99.90;;;;;;5016515;28;20543;-83
2021/12/18 00:49:18;;;;;;;5.78;1.95;;;8.10;99.90;;;;;;5015456;28;20069;-84
2021/12/18 00:51:45;;;;;;;6.28;1.60;;;8.00;99.90;;;;;;4998683;28;20046;-84
2021/12/18 00:54:10;;;;;;;9.68;2.45;;;8.10;99.90;;;;;;5000598;28;20030;-84
2021/12/18 00:56:36;;;;;;;16.25;3.05;;;8.00;99.90;;;;;;4999522;28;20048;-84
2021/12/18 00:59:02;;;;;;;9.35;2.00;;;8.00;99.90;;;;;;5014388;28;20038;-84
2021/12/18 01:01:32;;;;;;;6.65;2.17;;;8.00;99.90;;;;;;5030636;28;20083;-84
2021/12/18 01:04:00;;;;;;;11.50;2.10;;;8.00;99.90;;;;;;5017219;28;20045;-84
2021/12/18 01:06:26;;;;;;;14.63;2.33;;;8.00;99.90;;;;;;5009102;28;20428;-84
2021/12/18 01:08:55;;;;;;;9.85;2.10;;;8.10;99.90;;;;;;5013447;28;20057;-84
2021/12/18 01:24:56;;;;;;;13.93;2.60;;;8.10;99.90;;;;;;5028730;28;20049;-84
2021/12/18 01:27:24;;;;;;;22.35;3.15;;;8.10;99.90;;;;;;4999167;28;20053;-84
2021/12/18 01:29:50;;;;;;;15.65;2.70;;;8.10;99.90;;;;;;5018160;28;20037;-84
2021/12/18 01:32:16;;;;;;;10.45;2.58;;;8.10;99.90;;;;;;5003768;28;20136;-83
2021/12/18 01:34:42;;;;;;;13.60;2.60;;;8.00;99.90;;;;;;5002047;28;20045;-84
2021/12/18 01:37:08;;;;;;;10.43;2.20;;;8.00;99.90;;;;;;5000964;28;20042;-84
2021/12/18 01:39:34;;;;;;;20.30;2.83;;;7.90;99.90;;;;;;5018773;28;20144;-84
2021/12/18 01:52:42;;;;;;;16.13;2.90;;;8.00;99.90;;;;;;5033023;28;20184;-84
2021/12/18 01:55:09;;;;;;;26.50;2.53;;;8.00;99.90;;;;;;5003939;28;20053;-83
2021/12/18 01:57:36;;;;;;;21.10;2.60;;;8.00;99.90;;;;;;5005414;28;20310;-83
2021/12/18 02:00:16;;;;;;;15.70;2.63;;;7.90;99.90;;;;;;5018792;28;20056;-84
2021/12/18 02:02:41;;;;;;;42.35;3.42;;;7.90;99.90;;;;;;5016337;28;20484;-84
2021/12/18 02:05:07;;;;;;;37.05;3.83;;;7.90;99.90;;;;;;5007176;28;20057;-84
2021/12/18 02:07:33;;;;;;;12.95;2.85;;;8.00;99.90;;;;;;5014173;28;20476;-84
2021/12/18 02:10:03;;;;;;;10.25;2.40;;;8.00;99.90;;;;;;5018636;28;20045;-84
2021/12/18 02:12:40;;;;;;;8.45;2.60;;;7.90;99.90;;;;;;5001120;28;20307;-84
2021/12/18 02:20:42;;;;;;;10.45;2.53;;;7.90;99.90;;;;;;5014439;28;20126;-84
2021/12/18 02:23:08;;;;;;;9.90;2.47;;;7.90;99.90;;;;;;5017921;28;20084;-83
2021/12/18 02:25:35;;;;;;;9.05;2.72;;;7.80;99.90;;;;;;5003773;28;20393;-84
2021/12/18 02:28:02;;;;;;;7.35;2.13;;;7.90;99.90;;;;;;5003746;28;20037;-83
2021/12/18 02:30:32;;;;;;;9.40;2.58;;;7.90;99.90;;;;;;5002170;28;20574;-83
2021/12/18 02:32:57;;;;;;;13.18;3.05;;;7.90;99.90;;;;;;5019249;28;20033;-84
2021/12/18 02:35:45;;;;;;;8.73;2.40;;;7.80;99.90;;;;;;5001691;28;20493;-83
2021/12/18 02:38:18;;;;;;;18.17;3.05;;;7.90;99.90;;;;;;5017788;28;20580;-84
2021/12/18 02:40:52;;;;;;;19.00;2.92;;;7.90;99.90;;;;;;5001978;28;20121;-84
2021/12/18 02:43:29;;;;;;;15.85;2.95;;;7.90;99.90;;;;;;5017542;28;20481;-84
2021/12/18 02:45:59;;;;;;;14.77;2.65;;;7.90;99.90;;;;;;5020802;28;20041;-83
2021/12/18 02:48:29;;;;;;;12.30;3.00;;;7.90;99.90;;;;;;4999855;28;20466;-84
2021/12/18 02:50:56;;;;;;;26.10;3.20;;;7.90;99.90;;;;;;5013333;28;20048;-84
2021/12/18 02:53:22;;;;;;;17.88;3.00;;;7.90;99.90;;;;;;5002532;28;20115;-84
2021/12/18 02:56:01;;;;;;;11.15;2.78;;;7.90;99.90;;;;;;5001805;28;20046;-84
2021/12/18 02:58:27;;;;;;;11.65;2.72;;;7.90;99.90;;;;;;5016980;28;20049;-84
2021/12/18 03:00:56;;;;;;;12.63;2.67;;;7.90;99.90;;;;;;5017176;28;20033;-83
2021/12/18 03:03:26;;;;;;;11.63;2.53;;;7.90;99.90;;;;;;5017157;28;20053;-84
2021/12/18 03:06:11;;;;;;;10.63;2.80;;;7.90;99.90;;;;;;5013701;28;20063;-84
2021/12/18 03:27:13;;;;;;;13.40;3.17;;;8.00;99.90;;;;;;5015487;28;20128;-84
2021/12/18 03:29:39;;;;;;;12.57;3.03;;;8.00;99.90;;;;;;5014331;28;20203;-84
2021/12/18 03:32:05;;;;;;;14.77;3.78;;;8.00;99.90;;;;;;5014407;28;20048;-84
2021/12/18 03:34:30;;;;;;;11.95;3.30;;;8.00;99.90;;;;;;5018026;28;20525;-84
2021/12/18 03:36:56;;;;;;;15.85;3.63;;;8.10;99.90;;;;;;5000061;28;20256;-84
2021/12/18 03:39:22;;;;;;;12.23;3.15;;;8.10;99.90;;;;;;5000922;28;20349;-84
2021/12/18 03:41:48;;;;;;;16.65;3.25;;;8.10;99.90;;;;;;5014867;28;20254;-84
2021/12/18 03:44:16;;;;;;;17.33;3.22;;;8.00;99.90;;;;;;5016621;28;20107;-84
2021/12/18 03:46:42;;;;;;;9.45;2.53;;;8.00;99.90;;;;;;5017393;28;20125;-83
2021/12/18 03:49:08;;;;;;;8.43;2.70;;;8.10;99.90;;;;;;5018047;28;20112;-84
2021/12/18 03:51:33;;;;;;;7.72;2.80;;;8.00;99.90;;;;;;5003016;28;20140;-84
2021/12/18 03:53:59;;;;;;;11.85;2.83;;;8.00;99.90;;;;;;5016074;28;20315;-84
2021/12/18 03:56:27;;;;;;;7.88;2.25;;;8.00;99.90;;;;;;5030207;28;20041;-84
2021/12/18 03:58:53;;;;;;;6.53;2.03;;;8.00;99.90;;;;;;5002854;28;20042;-84
2021/12/18 04:01:18;;;;;;;4.80;1.90;;;8.00;99.90;;;;;;4999344;28;20205;-84
2021/12/18 04:03:44;;;;;;;5.40;1.90;;;8.00;99.90;;;;;;5000990;28;20117;-84
2021/12/18 04:06:10;;;;;;;8.38;2.00;;;7.90;99.90;;;;;;5014123;28;20500;-84
2021/12/18 04:08:35;;;;;;;6.43;1.90;;;8.00;99.90;;;;;;5016485;28;20463;-84
2021/12/18 04:11:01;;;;;;;7.38;2.08;;;7.90;99.90;;;;;;5015298;28;20042;-84
2021/12/18 04:13:26;;;;;;;9.93;2.20;;;7.90;99.90;;;;;;5017681;28;20065;-84
2021/12/18 04:15:52;;;;;;;8.05;2.08;;;7.90;99.90;;;;;;5002424;28;20033;-84
2021/12/18 04:18:18;;;;;;;10.80;1.95;;;7.90;99.90;;;;;;5002039;28;20034;-84
2021/12/18 04:20:43;;;;;;;12.80;2.20;;;8.00;99.90;;;;;;5012152;28;20299;-84
2021/12/18 04:23:09;;;;;;;11.32;1.65;;;8.00;99.90;;;;;;5001024;28;20103;-84
2021/12/18 04:25:35;;;;;;;6.30;2.20;;;8.00;99.90;;;;;;4999471;28;20144;-84
2021/12/18 04:28:00;;;;;;;8.45;1.90;;;8.00;99.90;;;;;;5017324;28;20052;-84
2021/12/18 04:30:26;;;;;;;26.60;2.60;;;8.00;99.90;;;;;;5017754;28;20501;-84
2021/12/18 04:32:51;;;;;;;6.93;1.85;;;8.00;99.90;;;;;;5002448;28;20396;-83
2021/12/18 04:35:17;;;;;;;6.20;1.88;;;8.00;99.90;;;;;;5015203;28;20151;-84
2021/12/18 04:37:43;;;;;;;7.15;1.73;;;8.00;99.90;;;;;;5014071;28;20064;-84
2021/12/18 04:40:09;;;;;;;6.78;2.00;;;8.00;99.90;;;;;;4995934;28;20033;-84
2021/12/18 04:42:35;;;;;;;9.32;2.30;;;8.10;99.90;;;;;;5013108;28;20088;-84
2021/12/18 04:45:01;;;;;;;4.80;1.90;;;8.00;99.90;;;;;;5000819;28;20045;-84
2021/12/18 04:47:26;;;;;;;8.32;2.00;;;8.00;99.90;;;;;;4987062;28;20065;-84
2021/12/18 04:49:52;;;;;;;6.13;2.25;;;8.10;99.90;;;;;;5031043;28;20132;-84
2021/12/18 04:52:17;;;;;;;14.70;2.60;;;8.00;99.90;;;;;;5013115;28;20451;-84
2021/12/18 04:54:44;;;;;;;8.40;2.38;;;8.10;99.90;;;;;;5001545;28;20053;-84
2021/12/18 04:57:11;;;;;;;5.85;2.38;;;8.10;99.90;;;;;;4997770;28;20033;-84
2021/12/18 04:59:43;;;;;;;7.93;2.53;;;8.00;99.90;;;;;;5015339;28;20073;-84
2021/12/18 05:02:09;;;;;;;9.98;2.38;;;8.10;99.90;;;;;;4998319;28;20030;-84
2021/12/18 05:04:35;;;;;;;10.77;2.83;;;8.10;99.90;;;;;;5014584;28;20795;-83
2021/12/18 05:07:00;;;;;;;8.85;2.90;;;8.10;99.90;;;;;;4998246;28;20034;-84
2021/12/18 05:09:26;;;;;;;8.10;2.78;;;8.10;99.90;;;;;;5000516;28;20298;-84
2021/12/18 05:11:52;;;;;;;8.80;2.72;;;8.20;99.90;;;;;;5015883;28;20039;-84
2021/12/18 05:14:18;;;;;;;9.93;2.60;;;8.20;99.90;;;;;;5002544;28;20045;-84
2021/12/18 05:16:45;;;;;;;12.60;3.05;;;8.20;99.90;;;;;;5001596;28;20034;-84
2021/12/18 05:19:11;;;;;;;12.32;2.60;;;8.30;99.90;;;;;;5000760;28;20042;-84
2021/12/18 05:21:36;;;;;;;10.80;2.65;;;8.20;99.90;;;;;;4998414;28;20064;-84
2021/12/18 05:24:02;;;;;;;19.20;3.47;;;8.20;99.90;;;;;;5000859;28;20124;-84
2021/12/18 05:26:28;;;;;;;10.63;2.83;;;8.20;99.90;;;;;;5014850;28;20099;-84
2021/12/18 05:28:54;;;;;;;16.40;2.85;;;8.20;99.90;;;;;;5014162;28;20128;-84
2021/12/18 05:31:19;;;;;;;11.07;3.15;;;8.30;99.90;;;;;;5014033;28;20133;-84
2021/12/18 05:33:47;;;;;;;10.07;3.45;;;8.30;99.90;;;;;;5017269;28;20034;-84
2021/12/18 05:39:07;;;;;;;8.13;3.25;;;8.30;99.90;;;;;;5014955;28;20041;-84
2021/12/18 05:41:34;;;;;;;8.68;3.28;;;8.30;99.90;;;;;;5029951;28;20824;-84
2021/12/18 05:44:00;;;;;;;10.43;3.03;;;8.30;99.90;;;;;;5016581;28;20246;-84
2021/12/18 05:46:27;;;;;;;11.73;3.20;;;8.30;99.90;;;;;;4997105;28;20650;-84
2021/12/18 05:48:52;;;;;;;11.05;3.47;;;8.30;99.90;;;;;;5014919;28;20037;-84
2021/12/18 05:51:18;;;;;;;12.05;2.92;;;8.30;99.90;;;;;;4996592;28;20033;-84
2021/12/18 05:53:44;;;;;;;8.88;3.40;;;8.30;99.90;;;;;;4999186;28;20029;-84
2021/12/18 05:56:10;;;;;;;10.55;3.60;;;8.30;99.90;;;;;;5014223;28;20057;-84
2021/12/18 05:58:35;;;;;;;11.48;3.42;;;8.30;99.90;;;;;;5016464;28;20041;-84
2021/12/18 06:01:01;;;;;;;11.82;3.28;;;8.40;99.90;;;;;;4999569;28;20051;-83
2021/12/18 06:03:27;;;;;;;13.20;3.50;;;8.40;99.90;;;;;;5000555;28;20037;-84
2021/12/18 06:05:52;;;;;;;14.32;3.97;;;8.40;99.90;;;;;;5008168;28;20049;-84
2021/12/18 06:08:18;;;;;;;10.73;3.65;;;8.40;99.90;;;;;;5016167;28;20087;-84
2021/12/18 06:10:44;;;;;;;14.38;3.45;;;8.40;99.90;;;;;;5011477;28;20080;-84
2021/12/18 06:13:10;;;;;;;12.68;3.60;;;8.50;99.90;;;;;;5002009;28;20580;-84
2021/12/18 06:15:36;;;;;;;12.15;3.90;;;8.50;99.90;;;;;;5017879;28;20037;-84
2021/12/18 06:18:04;;;;;;;16.52;4.85;;;8.50;99.90;;;;;;5015539;28;20349;-84
2021/12/18 06:20:30;;;;;;;9.45;3.78;;;8.50;99.90;;;;;;5015127;28;20222;-84
2021/12/18 06:22:57;;;;;;;12.00;3.85;;;8.60;99.90;;;;;;5016126;28;20041;-84
2021/12/18 06:25:22;;;;;;;19.60;5.20;;;8.70;99.90;;;;;;5002877;28;20041;-84
2021/12/18 06:27:48;;;;;;;18.42;4.53;;;8.70;99.90;;;;;;5005833;28;20045;-84
2021/12/18 06:30:17;;;;;;;18.13;4.90;;;8.70;99.90;;;;;;5002628;28;20120;-84
2021/12/18 06:32:43;;;;;;;15.50;5.07;;;8.70;99.90;;;;;;5003612;28;20065;-84
2021/12/18 06:35:09;;;;;;;18.02;5.18;;;8.70;99.90;;;;;;5002843;28;20511;-84
2021/12/18 06:37:35;;;;;;;19.77;5.82;;;8.80;99.90;;;;;;5001668;28;20301;-84
2021/12/18 06:40:01;;;;;;;16.48;5.25;;;8.80;99.90;;;;;;5018821;28;20405;-84
2021/12/18 06:42:26;;;;;;;16.13;4.97;;;8.80;99.90;;;;;;5015298;28;20096;-84
2021/12/18 06:44:52;;;;;;;20.52;6.22;;;8.90;99.90;;;;;;5003196;28;20117;-85
2021/12/18 06:47:17;;;;;;;23.13;6.60;;;8.90;99.90;;;;;;5003395;28;20322;-84
2021/12/18 06:49:43;;;;;;;19.95;6.20;;;8.90;99.90;;;;;;5016443;28;20045;-85
2021/12/18 06:52:09;;;;;;;24.17;7.03;;;9.00;99.90;;;;;;4998370;28;20132;-84
2021/12/18 06:54:35;;;;;;;24.10;6.82;;;9.00;99.90;;;;;;5013526;28;20488;-84
2021/12/18 06:57:02;;;;;;;22.20;6.95;;;9.10;99.90;;;;;;5017271;28;20135;-84
2021/12/18 06:59:29;;;;;;;25.20;6.78;;;9.10;99.90;;;;;;5014783;28;20164;-84
2021/12/18 07:01:54;;;;;;;27.45;7.18;;;9.10;99.90;;;;;;5001199;28;20095;-84
2021/12/18 07:04:23;;;;;;;23.83;7.82;;;9.20;99.90;;;;;;5015870;28;20503;-84
2021/12/18 07:06:52;;;;;;;25.70;7.70;;;9.20;99.90;;;;;;5017033;28;20148;-84
2021/12/18 07:09:19;;;;;;;23.05;7.10;;;9.20;99.90;;;;;;5018951;28;20046;-84
2021/12/18 07:11:44;;;;;;;18.80;6.93;;;9.30;99.90;;;;;;5001738;28;20049;-83
2021/12/18 07:14:11;;;;;;;19.75;6.88;;;9.30;99.90;;;;;;5019123;28;20052;-84
2021/12/18 07:16:36;;;;;;;12.77;5.38;;;9.30;99.90;;;;;;5004187;28;20056;-83
2021/12/18 07:19:02;;;;;;;14.38;5.85;;;9.40;99.90;;;;;;5019864;28;20038;-84
2021/12/18 07:21:28;;;;;;;13.73;5.40;;;9.40;99.90;;;;;;5015719;28;20042;-84
2021/12/18 07:23:53;;;;;;;11.57;4.82;;;9.40;99.90;;;;;;5003729;28;20546;-84
2021/12/18 07:26:19;;;;;;;14.55;4.95;;;9.40;99.90;;;;;;5015953;28;20960;-84
2021/12/18 07:28:45;;;;;;;9.20;4.45;;;9.50;99.90;;;;;;5002965;28;20207;-84
2021/12/18 07:31:11;;;;;;;12.65;4.63;;;9.50;99.90;;;;;;5018715;28;20219;-84
2021/12/18 07:33:40;;;;;;;11.70;4.70;;;9.50;99.90;;;;;;5016607;28;20401;-84
2021/12/18 07:36:07;;;;;;;9.38;4.40;;;9.50;99.90;;;;;;5011597;28;20053;-85
2021/12/18 07:38:33;;;;;;;16.35;5.00;;;9.50;99.90;;;;;;5002034;28;20429;-85
2021/12/18 07:41:00;;;;;;;10.27;4.32;;;9.50;99.90;;;;;;5014793;28;20188;-85
2021/12/18 07:43:25;;;;;;;10.75;3.50;;;9.50;99.90;;;;;;5016719;28;20585;-85
2021/12/18 07:45:51;;;;;;;10.30;4.10;;;9.50;99.90;;;;;;5016652;28;20150;-85
2021/12/18 07:48:17;;;;;;;8.88;3.47;;;9.50;99.90;;;;;;5014875;28;20095;-85
2021/12/18 07:50:43;;;;;;;10.60;3.40;;;9.50;99.90;;;;;;4999881;28;20961;-85
2021/12/18 07:53:09;;;;;;;10.40;3.40;;;9.50;99.90;;;;;;5000483;28;21313;-84
2021/12/18 07:55:35;;;;;;;12.88;4.05;;;9.60;99.90;;;;;;5014065;28;20060;-85
2021/12/18 07:58:00;;;;;;;9.43;4.13;;;9.50;99.90;;;;;;5002546;28;20057;-85
2021/12/18 08:00:26;;;;;;;11.93;3.80;;;9.50;99.90;;;;;;5002055;28;20120;-85
2021/12/18 08:02:52;;;;;;;9.32;3.67;;;9.50;99.90;;;;;;5002563;28;20117;-85
2021/12/18 08:05:18;;;;;;;7.93;3.30;;;9.50;99.90;;;;;;5001347;28;20158;-85
2021/12/18 08:07:43;;;;;;;10.13;3.85;;;9.50;99.90;;;;;;5000753;28;20116;-84
2021/12/18 08:10:09;;;;;;;10.38;3.60;;;9.50;99.90;;;;;;5000746;28;20533;-85
2021/12/18 08:12:35;;;;;;;10.73;3.67;;;9.50;99.90;;;;;;5006621;28;20042;-85
2021/12/18 08:15:01;;;;;;;12.65;4.30;;;9.50;99.90;;;;;;5014777;28;20033;-85
2021/12/18 08:17:26;;;;;;;12.60;4.15;;;9.50;99.90;;;;;;5001400;28;20397;-85
2021/12/18 08:19:52;;;;;;;9.30;4.18;;;9.50;99.90;;;;;;5016077;28;20042;-84
2021/12/18 08:22:18;;;;;;;8.00;3.78;;;9.40;99.90;;;;;;5029781;28;20037;-85
2021/12/18 08:24:46;;;;;;;12.40;3.92;;;9.50;99.90;;;;;;5001136;28;20041;-85
2021/12/18 08:27:12;;;;;;;10.23;3.92;;;9.50;99.90;;;;;;5018311;28;20041;-85
2021/12/18 08:29:38;;;;;;;12.40;4.18;;;9.50;99.90;;;;;;5013159;28;20048;-84
2021/12/18 08:32:04;;;;;;;12.50;3.88;;;9.50;99.90;;;;;;4997299;28;20109;-85
2021/12/18 08:34:30;;;;;;;9.68;3.78;;;9.50;99.90;;;;;;5011274;28;20359;-85
2021/12/18 08:36:55;;;;;;;14.30;4.20;;;9.50;99.90;;;;;;5011756;28;20109;-84
2021/12/18 08:39:24;;;;;;;9.93;3.58;;;9.50;99.90;;;;;;5015682;28;20120;-85
2021/12/18 08:41:50;;;;;;;13.32;4.40;;;9.50;99.90;;;;;;5015963;28;20041;-85
2021/12/18 08:44:15;;;;;;;9.13;2.60;;;9.50;99.90;;;;;;4999393;28;20091;-85
2021/12/18 08:46:42;;;;;;;9.20;3.35;;;9.50;99.90;;;;;;5017095;28;20119;-85
2021/12/18 08:49:08;;;;;;;9.90;3.08;;;9.50;99.90;;;;;;5002206;28;20034;-85
2021/12/18 08:51:36;;;;;;;8.30;3.22;;;9.50;99.90;;;;;;4999279;28;20044;-84
2021/12/18 08:54:03;;;;;;;6.85;3.15;;;9.50;99.90;;;;;;5001520;28;20655;-85
2021/12/18 08:56:28;;;;;;;9.25;3.45;;;9.40;99.90;;;;;;5012442;28;20493;-85
2021/12/18 08:58:54;;;;;;;7.07;2.72;;;9.40;99.90;;;;;;5016782;28;20132;-85
2021/12/18 09:01:21;;;;;;;9.77;3.10;;;9.40;99.90;;;;;;5012463;28;20037;-85
2021/12/18 09:03:48;;;;;;;6.57;2.60;;;9.40;99.90;;;;;;5001396;28;20547;-85
2021/12/18 09:06:16;;;;;;;11.90;2.95;;;9.40;99.90;;;;;;4992365;28;20149;-85
2021/12/18 09:08:44;;;;;;;7.45;2.67;;;9.40;99.90;;;;;;5013038;28;20040;-84
2021/12/18 09:11:10;;;;;;;9.57;2.80;;;9.50;99.90;;;;;;4999843;28;20116;-85
2021/12/18 09:13:36;;;;;;;5.47;2.33;;;9.40;99.90;;;;;;5001458;28;20453;-85
2021/12/18 09:16:05;;;;;;;7.53;2.88;;;9.50;99.90;;;;;;4999255;28;20116;-85
2021/12/18 09:18:31;;;;;;;8.40;2.63;;;9.50;99.90;;;;;;5009008;28;20126;-84
2021/12/18 09:21:00;;;;;;;7.47;2.60;;;9.50;99.90;;;;;;4995024;28;20538;-85
2021/12/18 09:23:25;;;;;;;9.38;2.67;;;9.50;99.90;;;;;;5000571;28;20037;-84
2021/12/18 09:25:51;;;;;;;7.38;2.80;;;9.50;99.90;;;;;;4998711;28;20570;-85
2021/12/18 09:28:17;;;;;;;7.60;2.50;;;9.50;99.90;;;;;;4999834;28;20033;-84
2021/12/18 09:30:43;;;;;;;6.45;2.20;;;9.50;99.90;;;;;;5014979;28;20539;-85
2021/12/18 09:33:12;;;;;;;9.95;2.53;;;9.60;99.90;;;;;;5012478;28;20038;-85
2021/12/18 09:35:41;;;;;;;7.57;3.10;;;9.60;99.90;;;;;;5010597;28;20463;-85
2021/12/18 09:38:07;;;;;;;5.45;2.25;;;9.50;99.90;;;;;;4995027;28;20029;-85
2021/12/18 09:40:33;;;;;;;10.35;2.45;;;9.60;99.90;;;;;;5015031;28;20087;-84
2021/12/18 09:42:59;;;;;;;7.15;2.40;;;9.50;99.90;;;;;;5015043;28;20069;-84
2021/12/18 09:45:25;;;;;;;5.00;1.95;;;9.60;99.90;;;;;;5015729;28;20071;-85
2021/12/18 09:47:51;;;;;;;5.47;2.20;;;9.50;99.90;;;;;;5015834;28;20139;-84
2021/12/18 09:50:19;;;;;;;8.07;2.35;;;9.50;99.90;;;;;;5004189;28;20049;-85
2021/12/18 09:52:45;;;;;;;8.43;2.60;;;9.60;99.90;;;;;;5004002;28;20649;-84
2021/12/18 09:55:12;;;;;;;6.45;2.75;;;9.50;99.90;;;;;;5003540;28;20049;-85
2021/12/18 09:57:39;;;;;;;8.57;2.88;;;9.60;99.90;;;;;;5015336;28;20121;-84
2021/12/18 10:00:14;;;;;;;10.27;3.40;;;9.50;99.90;;;;;;5018023;28;20033;-85
2021/12/18 10:02:40;;;;;;;10.55;3.60;;;9.50;99.90;;;;;;5015476;28;20046;-85
2021/12/18 10:05:07;;;;;;;7.43;3.95;;;9.50;99.90;;;;;;5003168;28;20030;-85
2021/12/18 10:07:33;;;;;;;11.05;4.38;;;9.50;99.90;;;;;;5002463;28;20034;-85
2021/12/18 10:10:00;;;;;;;11.57;4.80;;;9.50;99.90;;;;;;5018636;28;20034;-84
2021/12/18 10:12:32;;;;;;;9.82;5.00;;;9.50;99.90;;;;;;5003448;28;20036;-85
2021/12/18 10:15:00;;;;;;;12.23;5.10;;;9.50;99.90;;;;;;4992533;28;20037;-84
2021/12/18 10:17:33;;;;;;;11.57;4.43;;;9.50;99.90;;;;;;5035053;28;20033;-85
2021/12/18 10:20:11;;;;;;;10.77;4.82;;;9.50;99.90;;;;;;5013213;28;20049;-85
2021/12/18 10:22:42;;;;;;;8.90;4.70;;;9.50;99.90;;;;;;5033402;28;20556;-85
2021/12/18 10:25:08;;;;;;;10.95;4.68;;;9.50;99.90;;;;;;5031818;28;20079;-85
2021/12/18 10:27:38;;;;;;;12.43;4.85;;;9.50;99.90;;;;;;5016678;28;20041;-85
2021/12/18 10:30:13;;;;;;;12.43;3.83;;;9.50;99.90;;;;;;5015559;28;20099;-84
2021/12/18 10:32:39;;;;;;;11.05;4.47;;;9.50;99.90;;;;;;5015803;28;20061;-85
2021/12/18 10:35:08;;;;;;;10.45;4.35;;;9.50;99.90;;;;;;5013815;28;20977;-84
2021/12/18 10:37:34;;;;;;;10.70;4.55;;;9.50;99.90;;;;;;5015881;28;20513;-84
2021/12/18 10:40:10;;;;;;;9.68;3.80;;;9.50;99.90;;;;;;5016525;28;20037;-85
2021/12/18 10:42:46;;;;;;;12.45;4.75;;;9.50;99.90;;;;;;5000954;28;20582;-84
2021/12/18 10:45:25;;;;;;;10.63;4.13;;;9.50;99.90;;;;;;5014934;28;20077;-84
2021/12/18 10:48:19;;;;;;;7.80;3.72;;;9.50;99.90;;;;;;5019248;28;20030;-85
2021/12/18 10:50:50;;;;;;;9.45;4.10;;;9.50;99.90;;;;;;5018305;28;20072;-84
2021/12/18 10:53:29;;;;;;;15.75;4.75;;;9.60;99.90;;;;;;5021033;28;20049;-85
2021/12/18 10:55:58;;;;;;;12.48;4.97;;;9.60;99.90;;;;;;5017255;28;20136;-85
2021/12/18 10:58:29;;;;;;;12.30;4.78;;;9.50;99.90;;;;;;5017427;28;20404;-85
2021/12/18 11:01:05;;;;;;;13.15;6.40;;;9.60;99.90;;;;;;5005313;28;20053;-85
2021/12/18 11:03:51;;;;;;;12.52;6.35;;;9.50;99.90;;;;;;5014241;28;20121;-85
2021/12/18 11:06:25;;;;;;;16.75;6.47;;;9.60;99.90;;;;;;5015943;28;20045;-84
2021/12/18 11:09:14;;;;;;;11.27;5.13;;;9.70;99.90;;;;;;5031609;28;20120;-85
2021/12/18 11:14:38;;;;;;;11.73;4.60;;;9.60;99.90;;;;;;5016235;28;20075;-84
2021/12/18 11:17:10;;;;;;;8.13;3.22;;;9.60;99.90;;;;;;5014471;28;20081;-85
2021/12/18 11:19:36;;;;;;;6.45;4.20;;;9.60;99.90;;;;;;5013987;28;20487;-85
2021/12/18 11:22:09;;;;;;;9.82;4.30;;;9.50;99.90;;;;;;5015921;28;20045;-85
2021/12/18 11:24:36;;;;;;;10.55;4.55;;;9.60;99.90;;;;;;5016282;28;20060;-84
2021/12/18 11:27:12;;;;;;;7.30;3.42;;;9.60;99.90;;;;;;5016191;28;20464;-85
2021/12/18 11:29:47;;;;;;;9.93;4.00;;;9.50;99.90;;;;;;5017108;28;20045;-84
2021/12/18 11:32:18;;;;;;;;;;;9.60;99.90;;;;;;5002261;28;20326;-84
2021/12/18 11:34:45;;;;;;;7.90;4.10;;;9.70;99.90;;;;;;5002595;28;19943;-84
2021/12/18 11:37:14;;;;;;;13.98;4.70;;;9.70;99.90;;;;;;5000034;28;20030;-84
2021/12/18 11:39:41;;;;;;;15.73;4.97;;;9.60;99.90;;;;;;5003910;28;20100;-84
2021/12/18 11:42:08;;;;;;;9.38;4.93;;;9.70;99.90;;;;;;5001938;28;20049;-84
2021/12/18 11:44:40;;;;;;;10.55;4.57;;;9.70;99.90;;;;;;5015686;28;20037;-85
2021/12/18 11:47:22;;;;;;;12.95;5.03;;;9.60;99.90;;;;;;5001571;28;20029;-85
2021/12/18 11:49:48;;;;;;;10.23;4.82;;;9.70;99.90;;;;;;5014482;28;20037;-85
2021/12/18 11:52:14;;;;;;;11.00;5.10;;;9.70;99.90;;;;;;4998551;28;20053;-85
2021/12/18 11:54:49;;;;;;;11.07;4.72;;;9.70;99.90;;;;;;5014838;28;20052;-84
2021/12/18 11:57:42;;;;;;;7.68;3.60;;;9.70;99.90;;;;;;5016887;28;20112;-85
2021/12/18 12:00:22;;;;;;;8.27;2.83;;;9.60;99.90;;;;;;5002790;28;20114;-85
2021/12/18 12:02:54;;;;;;;7.45;2.60;;;9.50;99.90;;;;;;5018989;28;20437;-84
2021/12/18 12:05:40;;;;;;;7.60;2.30;;;9.50;99.90;;;;;;5012423;28;20029;-85
2021/12/18 12:08:22;;;;;;;7.32;2.70;;;9.50;99.90;;;;;;5015201;28;20038;-85
2021/12/18 12:11:16;;;;;;;7.90;2.83;;;9.50;99.90;;;;;;5012120;28;20375;-84
2021/12/18 12:14:00;;;;;;;7.18;2.90;;;9.50;99.90;;;;;;5015528;28;20155;-85
2021/12/18 12:16:44;;;;;;;9.10;3.10;;;9.50;99.90;;;;;;5007092;28;20046;-85
2021/12/18 12:19:15;;;;;;;8.43;3.15;;;9.50;99.90;;;;;;5015867;28;20106;-85
2021/12/18 12:21:48;;;;;;;10.02;3.38;;;9.50;99.90;;;;;;5000666;28;20045;-84
2021/12/18 12:24:17;;;;;;;9.20;3.08;;;9.50;99.90;;;;;;5015910;28;20418;-84
2021/12/18 12:26:43;;;;;;;8.85;3.10;;;9.40;99.90;;;;;;5016832;28;20103;-85
2021/12/18 12:29:10;;;;;;;9.20;3.22;;;9.50;99.90;;;;;;5015991;28;20120;-85
2021/12/18 12:31:37;;;;;;;8.57;3.50;;;9.50;99.90;;;;;;5014463;28;20041;-85
2021/12/18 12:34:23;;;;;;;7.10;3.33;;;9.50;99.90;;;;;;5015022;28;20034;-85
2021/12/18 12:36:57;;;;;;;10.52;4.28;;;9.50;99.90;;;;;;5003783;28;20034;-85
2021/12/18 12:39:24;;;;;;;8.30;3.58;;;9.50;99.90;;;;;;5014295;28;20481;-85
2021/12/18 12:41:52;;;;;;;8.68;3.72;;;9.50;99.90;;;;;;5015478;28;20572;-85
2021/12/18 12:44:28;;;;;;;8.63;2.92;;;9.50;99.90;;;;;;5017106;28;20124;-85
2021/12/18 12:47:14;;;;;;;10.45;3.63;;;9.50;99.90;;;;;;5004971;28;20374;-84
2021/12/18 12:49:40;;;;;;;7.70;3.03;;;9.50;99.90;;;;;;4990205;28;20122;-84
2021/12/18 12:52:10;;;;;;;11.48;3.38;;;9.50;99.90;;;;;;5014074;28;20072;-85
2021/12/18 12:54:55;;;;;;;9.13;3.30;;;9.50;99.90;;;;;;5000232;28;20385;-84
2021/12/18 12:57:23;;;;;;;11.68;2.85;;;9.50;99.90;;;;;;5014809;28;20568;-84
2021/12/18 12:59:51;;;;;;;10.20;3.28;;;9.40;99.90;;;;;;5015177;28;20092;-84
2021/12/18 13:02:17;;;;;;;7.07;3.22;;;9.40;99.90;;;;;;5033769;28;20033;-83
2021/12/18 13:04:43;;;;;;;10.55;3.38;;;9.40;99.90;;;;;;5015205;28;20067;-84
2021/12/18 13:07:09;;;;;;;9.30;3.75;;;9.40;99.90;;;;;;4996032;28;20152;-84
2021/12/18 13:09:42;;;;;;;9.50;3.42;;;9.40;99.90;;;;;;4998176;28;20033;-84
2021/12/18 13:12:10;;;;;;;9.52;3.40;;;9.40;99.90;;;;;;5011767;28;20540;-84
2021/12/18 13:14:40;;;;;;;10.38;3.63;;;9.30;99.90;;;;;;5001761;28;20124;-85
2021/12/18 13:17:19;;;;;;;7.13;3.10;;;9.30;99.90;;;;;;5014460;28;20033;-84
2021/12/18 13:20:11;;;;;;;7.70;3.40;;;9.40;99.90;;;;;;5011489;28;20111;-84
2021/12/18 13:22:37;;;;;;;13.60;4.47;;;9.40;99.90;;;;;;5024433;28;20515;-83
2021/12/18 13:25:14;;;;;;;14.48;4.03;;;9.40;99.90;;;;;;5005583;28;20057;-84
2021/12/18 13:28:05;;;;;;;7.55;3.28;;;9.40;99.90;;;;;;5035306;28;20526;-83
2021/12/18 13:30:36;;;;;;;11.63;3.70;;;9.30;99.90;;;;;;5031903;28;20598;-84
2021/12/18 13:33:05;;;;;;;11.70;4.63;;;9.30;99.90;;;;;;5002604;28;20056;-84
2021/12/18 13:35:33;;;;;;;8.65;3.80;;;9.30;99.90;;;;;;5010344;28;20029;-84
2021/12/18 13:38:05;;;;;;;8.50;3.58;;;9.20;99.90;;;;;;5002752;28;20466;-84
2021/12/18 13:40:35;;;;;;;10.57;4.10;;;9.30;99.90;;;;;;5001546;28;20124;-84
2021/12/18 13:43:11;;;;;;;12.50;4.85;;;9.30;99.90;;;;;;5018790;28;20040;-84
2021/12/18 13:46:01;;;;;;;8.32;3.38;;;9.30;99.90;;;;;;5018975;28;20053;-83
2021/12/18 13:48:29;;;;;;;7.88;3.38;;;9.20;99.90;;;;;;5004388;28;20495;-84
2021/12/18 13:50:57;;;;;;;13.02;3.72;;;9.30;99.90;;;;;;5015483;28;20055;-84
2021/12/18 13:53:23;;;;;;;10.52;3.33;;;9.30;99.90;;;;;;5000590;28;20030;-83